sensor_id;sensor_type;location;lat;lon;timestamp;pressure;altitude;pressure_sealevel;temperature;humidity
21824;BME280;11074;48.596;9.238;2023-04-27T00:00:06;98317.06;;;11.16;71.07
21824;BME280;11074;48.596;9.238;2023-04-27T00:02:36;98310.75;;;11.27;71.56
21824;BME280;11074;48.596;9.238;2023-04-27T00:05:03;98316.53;;;11.41;70.14
21824;BME280;11074;48.596;9.238;2023-04-27T00:07:30;98304.22;;;11.18;71.19
21824;BME280;11074;48.596;9.238;2023-04-27T00:09:56;98314.34;;;11.11;71.58
21824;BME280;11074;48.596;9.238;2023-04-27T00:12:22;98312.00;;;10.93;71.45
21824;BME280;11074;48.596;9.238;2023-04-27T00:14:48;98307.09;;;10.85;72.44
21824;BME280;11074;48.596;9.238;2023-04-27T00:17:13;98307.28;;;10.78;72.31
21824;BME280;11074;48.596;9.238;2023-04-27T00:19:39;98305.47;;;10.62;74.25
21824;BME280;11074;48.596;9.238;2023-04-27T00:22:07;98308.78;;;10.69;73.69
21824;BME280;11074;48.596;9.238;2023-04-27T00:24:33;98305.41;;;10.79;73.12
21824;BME280;11074;48.596;9.238;2023-04-27T00:26:59;98306.34;;;10.89;73.09
21824;BME280;11074;48.596;9.238;2023-04-27T00:29:24;98305.19;;;11.07;71.76
21824;BME280;11074;48.596;9.238;2023-04-27T00:31:50;98303.41;;;11.18;71.19
21824;BME280;11074;48.596;9.238;2023-04-27T00:34:16;98305.31;;;11.17;69.26
21824;BME280;11074;48.596;9.238;2023-04-27T00:36:42;98301.31;;;11.20;69.46
21824;BME280;11074;48.596;9.238;2023-04-27T00:39:07;98306.91;;;11.18;69.94
21824;BME280;11074;48.596;9.238;2023-04-27T00:41:37;98301.47;;;11.08;70.89
21824;BME280;11074;48.596;9.238;2023-04-27T00:44:04;98304.53;;;10.95;72.04
21824;BME280;11074;48.596;9.238;2023-04-27T00:46:31;98300.22;;;10.94;71.23
21824;BME280;11074;48.596;9.238;2023-04-27T00:48:59;98297.00;;;10.92;71.98
21824;BME280;11074;48.596;9.238;2023-04-27T00:51:25;98294.16;;;10.99;71.27
21824;BME280;11074;48.596;9.238;2023-04-27T00:53:56;98291.81;;;11.07;71.24
21824;BME280;11074;48.596;9.238;2023-04-27T00:56:23;98295.06;;;11.09;71.79
21824;BME280;11074;48.596;9.238;2023-04-27T00:58:49;98291.31;;;11.10;71.36
21824;BME280;11074;48.596;9.238;2023-04-27T01:01:15;98284.19;;;10.94;71.37
21824;BME280;11074;48.596;9.238;2023-04-27T01:03:41;98286.00;;;10.88;71.47
21824;BME280;11074;48.596;9.238;2023-04-27T01:06:06;98287.88;;;10.88;72.03
21824;BME280;11074;48.596;9.238;2023-04-27T01:08:32;98281.25;;;10.69;72.35
21824;BME280;11074;48.596;9.238;2023-04-27T01:10:58;98283.72;;;10.54;72.55
21824;BME280;11074;48.596;9.238;2023-04-27T01:13:23;98288.44;;;10.68;72.68
21824;BME280;11074;48.596;9.238;2023-04-27T01:15:49;98291.81;;;10.80;71.91
21824;BME280;11074;48.596;9.238;2023-04-27T01:18:15;98290.06;;;10.91;71.40
21824;BME280;11074;48.596;9.238;2023-04-27T01:20:41;98296.50;;;10.95;71.49
21824;BME280;11074;48.596;9.238;2023-04-27T01:23:07;98298.81;;;10.86;71.50
21824;BME280;11074;48.596;9.238;2023-04-27T01:25:33;98294.97;;;10.77;72.11
21824;BME280;11074;48.596;9.238;2023-04-27T01:27:59;98302.38;;;10.70;72.77
21824;BME280;11074;48.596;9.238;2023-04-27T01:30:25;98303.81;;;10.56;73.55
21824;BME280;11074;48.596;9.238;2023-04-27T01:32:53;98302.06;;;10.67;73.21
21824;BME280;11074;48.596;9.238;2023-04-27T01:35:18;98304.81;;;10.72;72.96
21824;BME280;11074;48.596;9.238;2023-04-27T01:37:44;98310.97;;;10.72;72.93
21824;BME280;11074;48.596;9.238;2023-04-27T01:40:10;98305.25;;;10.85;71.83
21824;BME280;11074;48.596;9.238;2023-04-27T01:42:36;98297.22;;;10.85;71.84
21824;BME280;11074;48.596;9.238;2023-04-27T01:45:03;98296.13;;;10.86;72.39
21824;BME280;11074;48.596;9.238;2023-04-27T01:47:29;98291.41;;;10.93;71.73
21824;BME280;11074;48.596;9.238;2023-04-27T01:49:54;98296.19;;;10.91;70.90
21824;BME280;11074;48.596;9.238;2023-04-27T01:52:20;98294.78;;;10.84;71.34
21824;BME280;11074;48.596;9.238;2023-04-27T01:54:46;98293.25;;;10.66;73.46
21824;BME280;11074;48.596;9.238;2023-04-27T01:57:11;98296.91;;;10.60;73.17
21824;BME280;11074;48.596;9.238;2023-04-27T01:59:38;98302.91;;;10.29;74.13
21824;BME280;11074;48.596;9.238;2023-04-27T02:02:04;98301.69;;;10.20;75.16
21824;BME280;11074;48.596;9.238;2023-04-27T02:04:30;98310.78;;;10.19;75.43
21824;BME280;11074;48.596;9.238;2023-04-27T02:06:55;98306.00;;;10.04;75.48
21824;BME280;11074;48.596;9.238;2023-04-27T02:09:21;98312.00;;;9.95;76.83
21824;BME280;11074;48.596;9.238;2023-04-27T02:11:47;98307.63;;;10.05;75.11
21824;BME280;11074;48.596;9.238;2023-04-27T02:14:12;98307.25;;;10.13;75.51
21824;BME280;11074;48.596;9.238;2023-04-27T02:16:38;98308.34;;;10.01;76.47
21824;BME280;11074;48.596;9.238;2023-04-27T02:19:04;98303.88;;;10.23;76.17
21824;BME280;11074;48.596;9.238;2023-04-27T02:21:30;98310.56;;;10.42;75.42
21824;BME280;11074;48.596;9.238;2023-04-27T02:23:55;98314.53;;;10.40;74.92
21824;BME280;11074;48.596;9.238;2023-04-27T02:26:22;98310.38;;;10.27;75.22
21824;BME280;11074;48.596;9.238;2023-04-27T02:28:54;98321.88;;;10.49;75.37
21824;BME280;11074;48.596;9.238;2023-04-27T02:31:21;98310.81;;;10.62;75.11
21824;BME280;11074;48.596;9.238;2023-04-27T02:33:47;98316.81;;;10.69;73.93
21824;BME280;11074;48.596;9.238;2023-04-27T02:36:12;98315.25;;;10.73;73.88
21824;BME280;11074;48.596;9.238;2023-04-27T02:38:38;98317.09;;;10.73;72.73
21824;BME280;11074;48.596;9.238;2023-04-27T02:41:04;98314.44;;;10.73;73.51
21824;BME280;11074;48.596;9.238;2023-04-27T02:43:29;98315.28;;;10.78;73.88
21824;BME280;11074;48.596;9.238;2023-04-27T02:45:55;98317.41;;;10.76;72.64
21824;BME280;11074;48.596;9.238;2023-04-27T02:48:21;98320.25;;;10.70;74.39
21824;BME280;11074;48.596;9.238;2023-04-27T02:50:46;98321.31;;;10.47;73.83
21824;BME280;11074;48.596;9.238;2023-04-27T02:53:12;98327.78;;;10.29;74.41
21824;BME280;11074;48.596;9.238;2023-04-27T02:55:44;98323.94;;;10.09;75.74
21824;BME280;11074;48.596;9.238;2023-04-27T02:58:12;98326.94;;;9.96;76.07
21824;BME280;11074;48.596;9.238;2023-04-27T03:00:38;98325.94;;;10.13;75.11
21824;BME280;11074;48.596;9.238;2023-04-27T03:03:05;98320.50;;;10.08;75.55
21824;BME280;11074;48.596;9.238;2023-04-27T03:05:32;98330.78;;;10.00;75.62
21824;BME280;11074;48.596;9.238;2023-04-27T03:07:58;98325.03;;;10.08;74.59
21824;BME280;11074;48.596;9.238;2023-04-27T03:10:23;98334.06;;;10.07;75.32
21824;BME280;11074;48.596;9.238;2023-04-27T03:12:49;98337.88;;;10.11;75.72
21824;BME280;11074;48.596;9.238;2023-04-27T03:15:15;98326.63;;;10.25;75.00
21824;BME280;11074;48.596;9.238;2023-04-27T03:17:41;98335.53;;;10.31;74.29
21824;BME280;11074;48.596;9.238;2023-04-27T03:20:07;98330.94;;;10.26;74.53
21824;BME280;11074;48.596;9.238;2023-04-27T03:22:35;98331.06;;;10.37;75.90
21824;BME280;11074;48.596;9.238;2023-04-27T03:25:01;98329.97;;;10.16;76.44
21824;BME280;11074;48.596;9.238;2023-04-27T03:27:28;98329.41;;;10.14;76.48
21824;BME280;11074;48.596;9.238;2023-04-27T03:29:54;98333.44;;;10.00;76.24
21824;BME280;11074;48.596;9.238;2023-04-27T03:32:20;98332.56;;;9.94;76.48
21824;BME280;11074;48.596;9.238;2023-04-27T03:34:46;98340.38;;;10.01;76.48
21824;BME280;11074;48.596;9.238;2023-04-27T03:37:12;98347.44;;;9.90;77.24
21824;BME280;11074;48.596;9.238;2023-04-27T03:39:38;98335.84;;;9.85;78.02
21824;BME280;11074;48.596;9.238;2023-04-27T03:42:04;98339.41;;;9.90;77.42
21824;BME280;11074;48.596;9.238;2023-04-27T03:44:30;98335.22;;;9.94;77.24
21824;BME280;11074;48.596;9.238;2023-04-27T03:46:58;98333.94;;;9.97;77.11
21824;BME280;11074;48.596;9.238;2023-04-27T03:49:24;98330.50;;;10.01;77.54
21824;BME280;11074;48.596;9.238;2023-04-27T03:51:50;98335.38;;;10.04;76.61
21824;BME280;11074;48.596;9.238;2023-04-27T03:54:16;98335.63;;;10.19;76.59
21824;BME280;11074;48.596;9.238;2023-04-27T03:56:41;98338.78;;;10.00;77.62
21824;BME280;11074;48.596;9.238;2023-04-27T03:59:09;98337.47;;;10.02;77.34
21824;BME280;11074;48.596;9.238;2023-04-27T04:01:34;98338.78;;;10.00;77.82
21824;BME280;11074;48.596;9.238;2023-04-27T04:04:01;98337.72;;;10.01;77.76
21824;BME280;11074;48.596;9.238;2023-04-27T04:06:27;98343.09;;;9.84;78.23
21824;BME280;11074;48.596;9.238;2023-04-27T04:08:53;98349.53;;;9.88;78.72
21824;BME280;11074;48.596;9.238;2023-04-27T04:11:19;98341.94;;;9.97;77.93
21824;BME280;11074;48.596;9.238;2023-04-27T04:13:45;98346.31;;;10.03;78.58
21824;BME280;11074;48.596;9.238;2023-04-27T04:16:12;98346.22;;;10.14;77.71
21824;BME280;11074;48.596;9.238;2023-04-27T04:18:38;98343.00;;;10.12;78.05
21824;BME280;11074;48.596;9.238;2023-04-27T04:21:04;98334.88;;;10.07;77.82
21824;BME280;11074;48.596;9.238;2023-04-27T04:23:30;98345.28;;;9.87;78.24
21824;BME280;11074;48.596;9.238;2023-04-27T04:25:57;98349.63;;;9.93;78.76
21824;BME280;11074;48.596;9.238;2023-04-27T04:28:24;98350.03;;;10.02;78.80
21824;BME280;11074;48.596;9.238;2023-04-27T04:30:50;98346.38;;;9.91;78.48
21824;BME280;11074;48.596;9.238;2023-04-27T04:33:17;98358.03;;;9.85;79.08
21824;BME280;11074;48.596;9.238;2023-04-27T04:35:43;98357.88;;;9.92;78.15
21824;BME280;11074;48.596;9.238;2023-04-27T04:38:09;98362.41;;;9.91;79.43
21824;BME280;11074;48.596;9.238;2023-04-27T04:40:37;98352.28;;;10.10;79.04
21824;BME280;11074;48.596;9.238;2023-04-27T04:43:04;98354.25;;;10.14;77.87
21824;BME280;11074;48.596;9.238;2023-04-27T04:45:31;98355.13;;;10.20;77.34
21824;BME280;11074;48.596;9.238;2023-04-27T04:47:57;98356.13;;;10.14;77.36
21824;BME280;11074;48.596;9.238;2023-04-27T04:50:24;98362.00;;;9.99;78.05
21824;BME280;11074;48.596;9.238;2023-04-27T04:52:50;98355.84;;;9.82;79.83
21824;BME280;11074;48.596;9.238;2023-04-27T04:55:15;98357.47;;;10.00;78.10
21824;BME280;11074;48.596;9.238;2023-04-27T04:57:41;98359.19;;;10.06;78.28
21824;BME280;11074;48.596;9.238;2023-04-27T05:00:08;98367.34;;;9.83;78.74
21824;BME280;11074;48.596;9.238;2023-04-27T05:02:39;98370.81;;;9.83;79.73
21824;BME280;11074;48.596;9.238;2023-04-27T05:05:05;98365.00;;;10.03;79.02
21824;BME280;11074;48.596;9.238;2023-04-27T05:07:32;98364.53;;;10.06;78.25
21824;BME280;11074;48.596;9.238;2023-04-27T05:09:58;98366.19;;;10.12;78.11
21824;BME280;11074;48.596;9.238;2023-04-27T05:12:24;98358.56;;;10.15;78.23
21824;BME280;11074;48.596;9.238;2023-04-27T05:14:51;98361.38;;;10.25;78.52
21824;BME280;11074;48.596;9.238;2023-04-27T05:17:17;98357.22;;;10.34;78.60
21824;BME280;11074;48.596;9.238;2023-04-27T05:19:43;98362.88;;;10.38;77.72
21824;BME280;11074;48.596;9.238;2023-04-27T05:22:09;98353.06;;;10.44;77.11
21824;BME280;11074;48.596;9.238;2023-04-27T05:24:35;98360.59;;;10.47;77.35
21824;BME280;11074;48.596;9.238;2023-04-27T05:27:01;98365.13;;;10.46;76.98
21824;BME280;11074;48.596;9.238;2023-04-27T05:29:26;98362.78;;;10.50;77.15
21824;BME280;11074;48.596;9.238;2023-04-27T05:31:52;98359.38;;;10.54;77.06
21824;BME280;11074;48.596;9.238;2023-04-27T05:34:18;98369.56;;;10.57;76.56
21824;BME280;11074;48.596;9.238;2023-04-27T05:36:44;98366.41;;;10.60;76.46
21824;BME280;11074;48.596;9.238;2023-04-27T05:39:12;98364.28;;;10.62;76.17
21824;BME280;11074;48.596;9.238;2023-04-27T05:41:38;98363.78;;;10.65;76.43
21824;BME280;11074;48.596;9.238;2023-04-27T05:44:04;98373.44;;;10.66;75.37
21824;BME280;11074;48.596;9.238;2023-04-27T05:46:31;98378.78;;;10.66;75.88
21824;BME280;11074;48.596;9.238;2023-04-27T05:48:58;98372.13;;;10.69;75.95
21824;BME280;11074;48.596;9.238;2023-04-27T05:51:24;98364.44;;;10.72;75.60
21824;BME280;11074;48.596;9.238;2023-04-27T05:53:49;98368.16;;;10.71;75.53
21824;BME280;11074;48.596;9.238;2023-04-27T05:56:15;98378.59;;;10.73;74.73
21824;BME280;11074;48.596;9.238;2023-04-27T05:58:41;98372.22;;;10.74;74.97
21824;BME280;11074;48.596;9.238;2023-04-27T06:01:07;98378.66;;;10.78;75.51
21824;BME280;11074;48.596;9.238;2023-04-27T06:03:35;98385.97;;;10.82;75.64
21824;BME280;11074;48.596;9.238;2023-04-27T06:06:01;98383.56;;;10.86;75.66
21824;BME280;11074;48.596;9.238;2023-04-27T06:08:27;98391.69;;;10.91;75.10
21824;BME280;11074;48.596;9.238;2023-04-27T06:10:54;98383.16;;;10.94;74.89
21824;BME280;11074;48.596;9.238;2023-04-27T06:13:19;98390.69;;;10.97;75.38
21824;BME280;11074;48.596;9.238;2023-04-27T06:15:45;98387.00;;;11.03;74.44
21824;BME280;11074;48.596;9.238;2023-04-27T06:18:12;98399.41;;;11.09;74.54
21824;BME280;11074;48.596;9.238;2023-04-27T06:20:37;98396.53;;;11.16;74.14
21824;BME280;11074;48.596;9.238;2023-04-27T06:23:03;98390.44;;;11.20;73.68
21824;BME280;11074;48.596;9.238;2023-04-27T06:25:29;98394.81;;;11.31;73.74
21824;BME280;11074;48.596;9.238;2023-04-27T06:27:56;98402.69;;;11.38;72.86
21824;BME280;11074;48.596;9.238;2023-04-27T06:30:25;98398.47;;;11.47;72.63
21824;BME280;11074;48.596;9.238;2023-04-27T06:32:51;98404.78;;;11.57;72.44
21824;BME280;11074;48.596;9.238;2023-04-27T06:35:17;98404.19;;;11.55;71.55
21824;BME280;11074;48.596;9.238;2023-04-27T06:37:43;98413.63;;;11.63;71.89
21824;BME280;11074;48.596;9.238;2023-04-27T06:40:10;98404.63;;;11.69;71.41
21824;BME280;11074;48.596;9.238;2023-04-27T06:42:36;98407.41;;;11.79;70.81
21824;BME280;11074;48.596;9.238;2023-04-27T06:45:02;98405.25;;;11.76;70.40
21824;BME280;11074;48.596;9.238;2023-04-27T06:47:29;98402.56;;;11.76;70.18
21824;BME280;11074;48.596;9.238;2023-04-27T06:49:55;98405.31;;;11.81;69.77
21824;BME280;11074;48.596;9.238;2023-04-27T06:52:20;98413.94;;;11.88;69.47
21824;BME280;11074;48.596;9.238;2023-04-27T06:54:46;98412.09;;;11.94;69.85
21824;BME280;11074;48.596;9.238;2023-04-27T06:57:12;98415.03;;;11.92;69.05
21824;BME280;11074;48.596;9.238;2023-04-27T06:59:38;98407.59;;;11.99;67.61
21824;BME280;11074;48.596;9.238;2023-04-27T07:02:04;98413.00;;;12.04;66.63
21824;BME280;11074;48.596;9.238;2023-04-27T07:04:30;98408.16;;;12.01;65.99
21824;BME280;11074;48.596;9.238;2023-04-27T07:06:55;98407.59;;;11.99;65.70
21824;BME280;11074;48.596;9.238;2023-04-27T07:09:21;98400.66;;;12.03;65.04
21824;BME280;11074;48.596;9.238;2023-04-27T07:11:47;98403.81;;;11.95;63.58
21824;BME280;11074;48.596;9.238;2023-04-27T07:14:13;98406.31;;;12.07;65.94
21824;BME280;11074;48.596;9.238;2023-04-27T07:16:39;98405.84;;;12.15;64.67
21824;BME280;11074;48.596;9.238;2023-04-27T07:19:04;98403.75;;;12.22;63.39
21824;BME280;11074;48.596;9.238;2023-04-27T07:21:30;98400.56;;;12.25;65.23
21824;BME280;11074;48.596;9.238;2023-04-27T07:23:56;98403.03;;;12.32;66.18
21824;BME280;11074;48.596;9.238;2023-04-27T07:26:22;98403.03;;;12.32;64.72
21824;BME280;11074;48.596;9.238;2023-04-27T07:28:49;98401.06;;;12.22;63.00
21824;BME280;11074;48.596;9.238;2023-04-27T07:31:15;98402.69;;;12.23;63.23
21824;BME280;11074;48.596;9.238;2023-04-27T07:33:41;98402.47;;;12.30;63.86
21824;BME280;11074;48.596;9.238;2023-04-27T07:36:07;98408.66;;;12.30;64.62
21824;BME280;11074;48.596;9.238;2023-04-27T07:38:33;98407.31;;;12.33;65.19
21824;BME280;11074;48.596;9.238;2023-04-27T07:41:00;98399.31;;;12.38;61.38
21824;BME280;11074;48.596;9.238;2023-04-27T07:43:26;98396.09;;;12.36;62.54
21824;BME280;11074;48.596;9.238;2023-04-27T07:45:52;98397.19;;;12.40;62.24
21824;BME280;11074;48.596;9.238;2023-04-27T07:48:23;98390.25;;;12.44;61.65
21824;BME280;11074;48.596;9.238;2023-04-27T07:50:49;98392.13;;;12.43;58.28
21824;BME280;11074;48.596;9.238;2023-04-27T07:53:15;98387.84;;;12.42;58.35
21824;BME280;11074;48.596;9.238;2023-04-27T07:55:41;98394.31;;;12.51;59.96
21824;BME280;11074;48.596;9.238;2023-04-27T07:58:09;98393.78;;;12.54;59.64
21824;BME280;11074;48.596;9.238;2023-04-27T08:00:35;98398.16;;;12.65;59.33
21824;BME280;11074;48.596;9.238;2023-04-27T08:03:01;98397.88;;;12.67;59.16
21824;BME280;11074;48.596;9.238;2023-04-27T08:05:27;98394.44;;;12.71;59.44
21824;BME280;11074;48.596;9.238;2023-04-27T08:07:53;98397.41;;;12.75;57.71
21824;BME280;11074;48.596;9.238;2023-04-27T08:10:19;98387.50;;;12.81;59.11
21824;BME280;11074;48.596;9.238;2023-04-27T08:12:45;98390.47;;;12.84;59.40
21824;BME280;11074;48.596;9.238;2023-04-27T08:15:10;98391.03;;;12.86;59.52
21824;BME280;11074;48.596;9.238;2023-04-27T08:17:36;98383.50;;;12.88;59.03
21824;BME280;11074;48.596;9.238;2023-04-27T08:20:05;98385.16;;;12.94;58.91
21824;BME280;11074;48.596;9.238;2023-04-27T08:22:32;98383.06;;;13.01;59.24
21824;BME280;11074;48.596;9.238;2023-04-27T08:24:58;98381.16;;;13.02;57.65
21824;BME280;11074;48.596;9.238;2023-04-27T08:27:24;98374.22;;;13.06;57.97
21824;BME280;11074;48.596;9.238;2023-04-27T08:29:50;98378.03;;;13.15;58.28
21824;BME280;11074;48.596;9.238;2023-04-27T08:32:16;98368.63;;;13.17;58.09
21824;BME280;11074;48.596;9.238;2023-04-27T08:34:41;98364.59;;;13.10;58.28
21824;BME280;11074;48.596;9.238;2023-04-27T08:37:09;98372.16;;;13.23;59.29
21824;BME280;11074;48.596;9.238;2023-04-27T08:39:35;98359.03;;;13.31;58.31
21824;BME280;11074;48.596;9.238;2023-04-27T08:42:00;98354.75;;;13.41;57.97
21824;BME280;11074;48.596;9.238;2023-04-27T08:44:27;98350.47;;;13.50;58.06
21824;BME280;11074;48.596;9.238;2023-04-27T08:46:54;98344.31;;;13.49;56.85
21824;BME280;11074;48.596;9.238;2023-04-27T08:49:19;98348.59;;;13.55;57.62
21824;BME280;11074;48.596;9.238;2023-04-27T08:51:45;98347.78;;;13.55;57.31
21824;BME280;11074;48.596;9.238;2023-04-27T08:54:11;98341.34;;;13.61;56.86
21824;BME280;11074;48.596;9.238;2023-04-27T08:56:37;98352.91;;;13.66;54.57
21824;BME280;11074;48.596;9.238;2023-04-27T08:59:13;98342.16;;;13.71;55.39
21824;BME280;11074;48.596;9.238;2023-04-27T09:01:46;98350.22;;;13.81;56.24
21824;BME280;11074;48.596;9.238;2023-04-27T09:04:13;98352.38;;;13.89;56.74
21824;BME280;11074;48.596;9.238;2023-04-27T09:06:40;98340.03;;;13.88;54.66
21824;BME280;11074;48.596;9.238;2023-04-27T09:09:06;98344.59;;;13.93;54.44
21824;BME280;11074;48.596;9.238;2023-04-27T09:11:36;98344.88;;;13.96;52.55
21824;BME280;11074;48.596;9.238;2023-04-27T09:14:20;98338.44;;;14.08;52.85
21824;BME280;11074;48.596;9.238;2023-04-27T09:16:56;98343.50;;;14.14;52.08
21824;BME280;11074;48.596;9.238;2023-04-27T09:19:26;98342.97;;;14.17;52.29
21824;BME280;11074;48.596;9.238;2023-04-27T09:22:10;98340.81;;;14.19;51.08
21824;BME280;11074;48.596;9.238;2023-04-27T09:24:36;98337.59;;;14.17;50.51
21824;BME280;11074;48.596;9.238;2023-04-27T09:27:02;98348.34;;;14.22;50.43
21824;BME280;11074;48.596;9.238;2023-04-27T09:29:37;98348.06;;;14.24;52.47
21824;BME280;11074;48.596;9.238;2023-04-27T09:32:17;98342.44;;;14.35;51.49
21824;BME280;11074;48.596;9.238;2023-04-27T09:34:45;98354.53;;;14.38;49.56
21824;BME280;11074;48.596;9.238;2023-04-27T09:37:11;98347.78;;;14.45;49.14
21824;BME280;11074;48.596;9.238;2023-04-27T09:39:39;98345.38;;;14.44;49.78
21824;BME280;11074;48.596;9.238;2023-04-27T09:42:06;98330.56;;;14.51;49.79
21824;BME280;11074;48.596;9.238;2023-04-27T09:44:33;98329.19;;;14.59;49.78
21824;BME280;11074;48.596;9.238;2023-04-27T09:47:00;98335.38;;;14.65;49.73
21824;BME280;11074;48.596;9.238;2023-04-27T09:49:27;98331.03;;;14.79;49.98
21824;BME280;11074;48.596;9.238;2023-04-27T09:51:56;98320.75;;;14.86;49.84
21824;BME280;11074;48.596;9.238;2023-04-27T09:54:29;98327.97;;;15.05;50.31
21824;BME280;11074;48.596;9.238;2023-04-27T09:57:18;98329.25;;;15.13;48.89
21824;BME280;11074;48.596;9.238;2023-04-27T10:00:12;98322.22;;;15.22;49.73
21824;BME280;11074;48.596;9.238;2023-04-27T10:08:40;98320.09;;;15.19;49.26
21824;BME280;11074;48.596;9.238;2023-04-27T10:11:14;98324.63;;;15.24;49.44
21824;BME280;11074;48.596;9.238;2023-04-27T10:13:54;98311.06;;;15.39;49.22
21824;BME280;11074;48.596;9.238;2023-04-27T10:16:21;98319.91;;;15.44;49.62
21824;BME280;11074;48.596;9.238;2023-04-27T10:18:54;98319.34;;;15.52;48.05
21824;BME280;11074;48.596;9.238;2023-04-27T10:21:20;98312.56;;;15.60;48.80
21824;BME280;11074;48.596;9.238;2023-04-27T10:23:48;98316.28;;;15.69;48.82
21824;BME280;11074;48.596;9.238;2023-04-27T10:26:26;98317.06;;;15.74;49.38
21824;BME280;11074;48.596;9.238;2023-04-27T10:29:07;98318.38;;;15.77;49.32
21824;BME280;11074;48.596;9.238;2023-04-27T10:31:33;98319.16;;;15.83;49.18
21824;BME280;11074;48.596;9.238;2023-04-27T10:34:14;98320.19;;;15.87;48.66
21824;BME280;11074;48.596;9.238;2023-04-27T10:36:40;98311.88;;;15.83;49.86
21824;BME280;11074;48.596;9.238;2023-04-27T10:39:17;98309.22;;;15.78;49.78
21824;BME280;11074;48.596;9.238;2023-04-27T10:41:54;98310.63;;;15.65;51.09
21824;BME280;11074;48.596;9.238;2023-04-27T10:44:29;98306.91;;;15.61;50.70
21824;BME280;11074;48.596;9.238;2023-04-27T10:46:59;98305.59;;;15.59;49.86
21824;BME280;11074;48.596;9.238;2023-04-27T10:49:29;98298.00;;;15.61;49.29
21824;BME280;11074;48.596;9.238;2023-04-27T10:51:59;98299.22;;;15.78;49.23
21824;BME280;11074;48.596;9.238;2023-04-27T10:54:29;98292.69;;;15.85;49.15
21824;BME280;11074;48.596;9.238;2023-04-27T10:57:10;98289.53;;;16.06;48.09
21824;BME280;11074;48.596;9.238;2023-04-27T10:59:48;98298.28;;;16.22;48.58
21824;BME280;11074;48.596;9.238;2023-04-27T11:02:14;98283.94;;;16.50;48.16
21824;BME280;11074;48.596;9.238;2023-04-27T11:04:40;98287.97;;;16.58;47.94
21824;BME280;11074;48.596;9.238;2023-04-27T11:07:08;98290.94;;;16.56;48.86
21824;BME280;11074;48.596;9.238;2023-04-27T11:09:36;98285.28;;;16.58;48.15
21824;BME280;11074;48.596;9.238;2023-04-27T11:12:07;98290.53;;;16.68;47.98
21824;BME280;11074;48.596;9.238;2023-04-27T11:14:36;98294.56;;;16.70;48.32
21824;BME280;11074;48.596;9.238;2023-04-27T11:17:03;98288.16;;;16.85;50.36
21824;BME280;11074;48.596;9.238;2023-04-27T11:19:29;98289.00;;;17.04;47.72
21824;BME280;11074;48.596;9.238;2023-04-27T11:22:05;98285.00;;;17.20;46.35
21824;BME280;11074;48.596;9.238;2023-04-27T11:24:32;98288.84;;;17.33;50.57
21824;BME280;11074;48.596;9.238;2023-04-27T11:26:58;98289.88;;;17.37;47.16
21824;BME280;11074;48.596;9.238;2023-04-27T11:29:24;98282.66;;;17.70;45.88
21824;BME280;11074;48.596;9.238;2023-04-27T11:31:51;98285.88;;;17.72;45.10
21824;BME280;11074;48.596;9.238;2023-04-27T11:34:21;98288.41;;;17.82;48.08
21824;BME280;11074;48.596;9.238;2023-04-27T11:37:04;98278.00;;;17.89;46.35
21824;BME280;11074;48.596;9.238;2023-04-27T11:39:36;98274.28;;;17.85;46.70
21824;BME280;11074;48.596;9.238;2023-04-27T11:42:25;98283.16;;;17.72;48.18
21824;BME280;11074;48.596;9.238;2023-04-27T11:45:00;98282.81;;;17.60;45.01
21824;BME280;11074;48.596;9.238;2023-04-27T11:47:29;98281.63;;;17.66;45.89
21824;BME280;11074;48.596;9.238;2023-04-27T11:50:01;98286.00;;;17.80;45.90
21824;BME280;11074;48.596;9.238;2023-04-27T11:52:37;98288.28;;;18.05;45.60
21824;BME280;11074;48.596;9.238;2023-04-27T11:55:05;98287.00;;;18.16;45.05
21824;BME280;11074;48.596;9.238;2023-04-27T11:57:34;98283.97;;;18.18;46.39
21824;BME280;11074;48.596;9.238;2023-04-27T12:00:03;98288.22;;;18.24;46.81
21824;BME280;11074;48.596;9.238;2023-04-27T12:02:36;98284.44;;;18.39;45.32
21824;BME280;11074;48.596;9.238;2023-04-27T12:05:03;98279.25;;;18.56;48.04
21824;BME280;11074;48.596;9.238;2023-04-27T12:07:29;98278.34;;;18.74;43.92
21824;BME280;11074;48.596;9.238;2023-04-27T12:09:55;98270.78;;;18.98;43.07
21824;BME280;11074;48.596;9.238;2023-04-27T12:12:21;98262.00;;;19.28;44.19
21824;BME280;11074;48.596;9.238;2023-04-27T12:14:51;98261.06;;;19.33;48.62
21824;BME280;11074;48.596;9.238;2023-04-27T12:17:17;98253.75;;;19.33;46.20
21824;BME280;11074;48.596;9.238;2023-04-27T12:19:43;98254.34;;;19.66;42.85
21824;BME280;11074;48.596;9.238;2023-04-27T12:22:10;98253.72;;;19.91;41.35
21824;BME280;11074;48.596;9.238;2023-04-27T12:24:35;98249.91;;;19.92;39.63
21824;BME280;11074;48.596;9.238;2023-04-27T12:27:02;98241.88;;;19.87;39.11
21824;BME280;11074;48.596;9.238;2023-04-27T12:29:29;98248.41;;;19.86;39.50
21824;BME280;11074;48.596;9.238;2023-04-27T12:31:57;98250.50;;;19.67;38.51
21824;BME280;11074;48.596;9.238;2023-04-27T12:34:23;98242.09;;;19.69;40.48
21824;BME280;11074;48.596;9.238;2023-04-27T12:36:49;98249.47;;;19.55;40.40
21824;BME280;11074;48.596;9.238;2023-04-27T12:39:21;98244.78;;;19.47;41.30
21824;BME280;11074;48.596;9.238;2023-04-27T12:41:49;98242.69;;;19.30;40.61
21824;BME280;11074;48.596;9.238;2023-04-27T12:44:17;98250.88;;;19.16;42.00
21824;BME280;11074;48.596;9.238;2023-04-27T12:46:44;98256.28;;;19.16;47.51
21824;BME280;11074;48.596;9.238;2023-04-27T12:49:11;98250.81;;;19.08;47.22
21824;BME280;11074;48.596;9.238;2023-04-27T12:51:37;98251.69;;;19.03;41.30
21824;BME280;11074;48.596;9.238;2023-04-27T12:54:04;98250.28;;;19.06;42.05
21824;BME280;11074;48.596;9.238;2023-04-27T12:56:30;98242.72;;;19.16;40.78
21824;BME280;11074;48.596;9.238;2023-04-27T12:58:57;98242.69;;;19.30;46.64
21824;BME280;11074;48.596;9.238;2023-04-27T13:01:24;98239.81;;;19.26;41.22
21824;BME280;11074;48.596;9.238;2023-04-27T13:03:53;98241.31;;;19.19;39.36
21824;BME280;11074;48.596;9.238;2023-04-27T13:06:20;98237.28;;;19.30;39.63